Airports United Kingdom Norwich International Airport

Norwich International Airport (EGSH / NWI)

Facts about Norwich International Airport

Name Norwich International Airport
City Norwich
Country United Kingdom
ICAO code EGSH
IATA code NWI
Elevation 35.6616 meters (117 feet)

Weather

METAR

Metar data retrieved Saturday, 20 July 2024 at 00:55 UTC (17 minutes ago)

EGSH 200020Z AUTO 17006KT 9999 NCD 19/16 Q1012

Live traffic

Navigraph Charts (account required)